Time;durP1;ratioP1;P1;durP2;ratioP2;P2;SDS_P1;SDS_P2;PMS_P1;PMS_P2;Temp;Humidity;BMP_temperature;BMP_pressure;BME280_temperature;BME280_humidity;BME280_pressure;Samples;Min_cycle;Max_cycle;Signal;HPM_P1;HPM_P2
2021/11/03 00:01:37;;;;;;;4.72;2.50;;;;;;;6.71;100.00;98875.19;6195746;23;20004;-79
2021/11/03 00:04:09;;;;;;;5.40;2.90;;;;;;;6.67;100.00;98874.19;6147820;23;20015;-79
2021/11/03 00:06:52;;;;;;;4.40;2.03;;;;;;;6.67;100.00;98882.47;6197969;23;20028;-79
2021/11/03 00:09:36;;;;;;;4.55;2.28;;;;;;;6.70;100.00;98873.56;6147653;23;20012;-79
2021/11/03 00:12:31;;;;;;;3.13;1.92;;;;;;;6.67;100.00;98886.03;6219170;23;20095;-79
2021/11/03 00:15:22;;;;;;;4.13;2.20;;;;;;;6.60;100.00;98882.06;6185078;23;20079;-79
2021/11/03 00:23:12;;;;;;;;;;;;;;;;;;;;;
2021/11/03 00:41:27;;;;;;;6.03;3.13;;;;;;;6.35;100.00;98900.78;5898057;24;20017;-80
2021/11/03 00:53:26;;;;;;;5.25;3.35;;;;;;;6.36;100.00;98902.38;5793694;24;19944;-80
2021/11/03 00:56:53;;;;;;;8.43;3.53;;;;;;;6.34;100.00;98896.34;5790937;24;20127;-79
2021/11/03 01:00:50;;;;;;;7.47;3.30;;;;;;;6.30;100.00;98911.06;5781077;24;20433;-80
2021/11/03 01:11:23;;;;;;;5.82;3.50;;;;;;;6.23;100.00;98915.03;5906772;24;20455;-80
2021/11/03 01:38:09;;;;;;;6.57;3.97;;;;;;;6.01;100.00;98923.16;5898030;24;20098;-79
2021/11/03 01:46:40;;;;;;;4.32;2.95;;;;;;;5.97;100.00;98933.16;5802404;24;20022;-80
2021/11/03 02:01:27;;;;;;;3.70;2.88;;;;;;;5.91;100.00;98935.16;5901813;24;20020;-79
2021/11/03 02:51:46;;;;;;;4.15;2.70;;;;;;;5.72;100.00;98953.66;5963865;24;20020;-79
2021/11/03 02:56:13;;;;;;;;;;;;;;;;;;;;;
2021/11/03 03:04:13;;;;;;;;;;;;;;;;;;;;;
2021/11/03 03:07:26;;;;;;;6.20;2.90;;;;;;;5.57;100.00;98955.53;5937605;23;20050;-79
2021/11/03 03:11:15;;;;;;;4.10;2.60;;;;;;;5.55;100.00;98965.22;5895967;24;20026;-79
2021/11/03 03:14:37;;;;;;;3.80;2.70;;;;;;;5.49;100.00;98972.72;5826217;24;20406;-79
2021/11/03 03:25:17;;;;;;;3.72;2.50;;;;;;;5.41;100.00;98980.84;5824870;24;20067;-79
2021/11/03 03:29:01;;;;;;;;;;;;;;;;;;;;;
2021/11/03 03:36:06;;;;;;;4.22;2.50;;;;;;;5.28;100.00;98983.19;5986321;23;20074;-79
2021/11/03 03:39:25;;;;;;;4.85;2.45;;;;;;;5.28;100.00;98987.91;6118303;23;20021;-79
2021/11/03 03:43:09;;;;;;;;;;;;;;;;;;;;;
2021/11/03 03:47:06;;;;;;;4.97;2.65;;;;;;;5.22;100.00;98997.34;6073052;23;20006;-78
2021/11/03 03:50:04;;;;;;;;;;;;;;;;;;;;;
2021/11/03 03:52:54;;;;;;;6.50;2.60;;;;;;;5.12;100.00;99001.84;6196228;23;20009;-79
2021/11/03 03:56:27;;;;;;;;;;;;;;;;;;;;;
2021/11/03 04:02:59;;;;;;;;;;;;;;;;;;;;;
2021/11/03 04:13:07;;;;;;;5.65;2.60;;;;;;;4.87;100.00;99011.22;6072822;23;20006;-78
2021/11/03 04:15:46;;;;;;;4.90;2.83;;;;;;;4.85;100.00;99013.47;6149986;23;20009;-78
2021/11/03 04:18:58;;;;;;;3.97;2.20;;;;;;;4.85;100.00;99016.22;6167374;23;20059;-79
2021/11/03 04:22:26;;;;;;;3.50;2.35;;;;;;;4.82;100.00;99018.72;6051719;23;20032;-79
2021/11/03 04:24:57;;;;;;;2.95;2.30;;;;;;;4.75;100.00;99018.28;6051164;23;20018;-79
2021/11/03 04:27:47;;;;;;;3.65;2.45;;;;;;;4.74;100.00;99027.63;6049957;23;20018;-78
2021/11/03 04:34:38;;;;;;;3.25;1.80;;;;;;;4.66;100.00;99027.16;6037195;23;20037;-79
2021/11/03 04:37:56;;;;;;;3.30;1.90;;;;;;;4.64;100.00;99034.88;6054479;23;20010;-79
2021/11/03 04:49:03;;;;;;;4.03;1.60;;;;;;;4.55;100.00;99030.31;6127069;23;20057;-79
2021/11/03 05:09:14;;;;;;;;;;;;;;;;;;;;;
2021/11/03 06:27:44;;;;;;;2.05;1.38;;;;;;;3.75;100.00;99103.72;4084282;27;28118595;-81
2021/11/03 06:31:18;;;;;;;2.47;1.35;;;;;;;3.74;100.00;99109.53;5099540;28;20032;-81
2021/11/03 06:34:41;;;;;;;;;;;;;;;;;;;;;
2021/11/03 06:37:41;;;;;;;1.70;1.20;;;;;;;3.69;100.00;99123.28;5085277;28;20048;-81
2021/11/03 06:41:42;;;;;;;;;;;;;;;;;;;;;
2021/11/03 06:44:24;;;;;;;2.85;1.42;;;;;;;3.65;100.00;99147.72;5061242;28;20063;-80
2021/11/03 06:46:50;;;;;;;1.48;1.20;;;;;;;3.64;100.00;99148.81;5059436;28;20107;-80
2021/11/03 06:49:16;;;;;;;2.35;1.50;;;;;;;3.62;100.00;99145.53;5076228;28;20058;-81
2021/11/03 06:51:58;;;;;;;3.28;1.40;;;;;;;3.58;100.00;99144.47;5073209;28;20239;-80
2021/11/03 06:55:16;;;;;;;3.60;1.40;;;;;;;3.54;100.00;99140.66;5063645;28;20047;-81
2021/11/03 06:58:54;;;;;;;;;;;;;;;;;;;;;
2021/11/03 07:13:41;;;;;;;;;;;;;;;;;;;;;
2021/11/03 07:24:12;;;;;;;2.28;1.40;;;;;;;3.69;100.00;99192.72;4846213;29;20042;-81
2021/11/03 07:27:16;;;;;;;3.65;1.50;;;;;;;3.73;100.00;99185.59;4805001;29;20049;-80
2021/11/03 07:30:02;;;;;;;2.25;1.50;;;;;;;3.81;100.00;99190.47;4889003;29;20056;-81
2021/11/03 07:33:16;;;;;;;5.10;1.50;;;;;;;3.93;100.00;99194.84;4863844;29;20081;-81
2021/11/03 07:36:30;;;;;;;2.72;1.50;;;;;;;4.02;100.00;99198.63;4894742;29;20080;-81
2021/11/03 07:39:29;;;;;;;3.20;1.60;;;;;;;4.13;100.00;99202.16;4849776;29;20052;-81
2021/11/03 07:42:23;;;;;;;3.05;1.40;;;;;;;4.28;100.00;99202.03;4876288;29;20073;-81
2021/11/03 07:45:16;;;;;;;3.75;1.65;;;;;;;4.44;100.00;99205.53;4865384;29;20591;-82
2021/11/03 07:48:14;;;;;;;2.25;1.50;;;;;;;4.62;100.00;99210.31;4811472;29;20077;-81
2021/11/03 08:01:55;;;;;;;4.78;2.03;;;;;;;5.49;100.00;99244.50;4958387;28;20038;-81
2021/11/03 08:05:37;;;;;;;3.47;1.90;;;;;;;5.72;100.00;99248.41;4950033;28;20066;-81
2021/11/03 08:19:56;;;;;;;4.03;2.40;;;;;;;6.42;100.00;99273.47;4911032;29;20068;-81
2021/11/03 08:23:21;;;;;;;3.40;2.00;;;;;;;6.56;100.00;99269.97;4911079;28;20043;-81
2021/11/03 08:29:23;;;;;;;2.42;1.92;;;;;;;6.81;100.00;99282.56;4955382;28;20124;-80
2021/11/03 08:31:51;;;;;;;5.35;1.80;;;;;;;6.93;100.00;99283.75;5015204;28;20033;-85
2021/11/03 08:34:17;;;;;;;3.25;1.80;;;;;;;7.07;100.00;99283.81;4997430;28;20363;-84
2021/11/03 08:36:43;;;;;;;4.07;2.20;;;;;;;7.22;100.00;99277.22;5013295;28;20052;-76
2021/11/03 08:39:08;;;;;;;2.05;1.40;;;;;;;7.35;100.00;99286.66;5040624;28;20041;-75
2021/11/03 08:41:34;;;;;;;5.82;1.83;;;;;;;7.49;100.00;99282.00;5001910;28;20063;-75
2021/11/03 08:44:00;;;;;;;3.50;1.70;;;;;;;7.68;100.00;99290.22;5018765;28;20045;-76
2021/11/03 08:46:25;;;;;;;6.28;2.58;;;;;;;7.85;100.00;99295.16;5033271;28;20091;-75
2021/11/03 08:48:59;;;;;;;4.38;2.05;;;;;;;8.02;100.00;99294.53;5025725;28;20060;-76
2021/11/03 08:51:26;;;;;;;5.63;2.00;;;;;;;8.20;100.00;99292.81;5080448;28;20029;-75
2021/11/03 08:53:52;;;;;;;4.72;1.92;;;;;;;8.38;100.00;99293.81;5070209;28;20393;-76
2021/11/03 08:56:18;;;;;;;4.65;3.13;;;;;;;8.56;100.00;99289.34;5074475;28;20514;-76
2021/11/03 08:58:43;;;;;;;5.53;2.72;;;;;;;8.71;100.00;99292.56;5074145;28;20064;-76
2021/11/03 09:01:10;;;;;;;3.97;2.50;;;;;;;8.87;100.00;99284.72;5079188;28;20085;-75
2021/11/03 09:03:36;;;;;;;4.43;2.58;;;;;;;8.99;100.00;99295.25;5087233;28;20028;-75
2021/11/03 09:06:02;;;;;;;3.35;2.40;;;;;;;9.13;100.00;99304.31;5086548;28;20362;-75
2021/11/03 09:08:28;;;;;;;2.33;2.00;;;;;;;9.23;100.00;99305.22;5084508;28;20028;-75
2021/11/03 09:10:56;;;;;;;6.80;2.20;;;;;;;9.28;100.00;99307.88;5086766;28;20031;-75
2021/11/03 09:13:26;;;;;;;6.88;2.38;;;;;;;9.34;100.00;99312.16;5086124;28;20024;-75
2021/11/03 09:15:51;;;;;;;4.18;1.95;;;;;;;9.35;100.00;99313.78;5082832;28;20100;-75
2021/11/03 09:18:17;;;;;;;4.50;1.90;;;;;;;9.38;100.00;99319.50;5056555;28;20448;-76
2021/11/03 09:20:45;;;;;;;3.47;2.08;;;;;;;9.38;100.00;99324.22;5057890;28;20093;-73
2021/11/03 09:23:10;;;;;;;2.78;1.90;;;;;;;9.39;100.00;99325.88;5082070;28;20032;-73
2021/11/03 09:25:36;;;;;;;3.92;2.10;;;;;;;9.38;100.00;99330.59;5067734;28;20037;-73
2021/11/03 09:28:02;;;;;;;4.15;1.48;;;;;;;9.33;100.00;99333.50;5084420;28;20114;-74
2021/11/03 09:30:27;;;;;;;3.30;1.60;;;;;;;9.29;100.00;99331.66;5084932;28;20033;-73
2021/11/03 09:32:56;;;;;;;3.03;1.60;;;;;;;9.28;100.00;99332.81;5084476;28;20032;-73
2021/11/03 09:35:23;;;;;;;3.50;1.38;;;;;;;9.28;100.00;99335.59;5080819;28;20027;-73
2021/11/03 09:37:48;;;;;;;3.00;1.40;;;;;;;9.30;100.00;99333.28;5093195;28;20047;-73
2021/11/03 09:40:28;;;;;;;3.33;1.40;;;;;;;9.31;100.00;99346.84;5092854;28;20029;-73
2021/11/03 09:42:54;;;;;;;3.42;1.40;;;;;;;9.36;100.00;99348.66;5075645;28;20686;-73
2021/11/03 09:45:32;;;;;;;2.38;1.25;;;;;;;9.42;100.00;99347.44;5052568;28;20056;-74
2021/11/03 09:48:21;;;;;;;4.88;1.10;;;;;;;9.49;100.00;99347.78;5045675;28;20386;-73
2021/11/03 09:50:49;;;;;;;3.17;1.27;;;;;;;9.58;100.00;99345.91;5076928;28;20445;-74
2021/11/03 09:53:22;;;;;;;2.60;1.20;;;;;;;9.63;100.00;99347.72;5053598;28;20086;-73
2021/11/03 09:55:48;;;;;;;3.47;1.08;;;;;;;9.70;100.00;99344.53;5092011;28;20039;-73
2021/11/03 09:58:46;;;;;;;4.57;1.58;;;;;;;9.80;100.00;99347.00;5087281;28;20036;-74
2021/11/03 10:01:33;;;;;;;1.63;1.30;;;;;;;9.90;100.00;99346.75;5075495;28;20036;-73
2021/11/03 10:04:16;;;;;;;2.80;1.25;;;;;;;9.99;100.00;99353.16;5065257;28;20081;-76
2021/11/03 10:06:46;;;;;;;3.38;1.40;;;;;;;10.07;100.00;99346.81;5082831;28;20032;-73
2021/11/03 10:09:12;;;;;;;2.47;1.27;;;;;;;10.17;100.00;99339.34;5077718;28;20511;-73
2021/11/03 10:11:43;;;;;;;6.07;1.52;;;;;;;10.27;100.00;99351.03;5087285;28;20032;-74
2021/11/03 10:14:09;;;;;;;2.67;1.40;;;;;;;10.32;100.00;99347.31;5060860;28;20115;-75
2021/11/03 10:16:36;;;;;;;3.90;1.42;;;;;;;10.39;100.00;99353.22;5069613;28;20040;-73
2021/11/03 10:19:14;;;;;;;3.10;1.35;;;;;;;10.48;100.00;99356.84;5081952;28;20032;-73
2021/11/03 10:21:50;;;;;;;3.67;1.48;;;;;;;10.56;100.00;99360.78;5082290;28;20380;-73
2021/11/03 10:27:46;;;;;;;4.10;1.58;;;;;;;10.74;100.00;99369.97;5078133;28;20054;-73
2021/11/03 10:30:36;;;;;;;5.90;2.22;;;;;;;10.79;100.00;99358.72;5060885;28;20453;-73
2021/11/03 10:33:14;;;;;;;6.88;2.20;;;;;;;10.87;100.00;99357.91;5076156;28;20437;-73
2021/11/03 10:35:42;;;;;;;3.72;1.88;;;;;;;10.94;100.00;99352.69;5073089;28;20073;-73
2021/11/03 10:38:17;;;;;;;3.92;1.83;;;;;;;10.99;100.00;99354.50;5075776;28;20111;-74
2021/11/03 10:40:45;;;;;;;4.13;1.70;;;;;;;11.05;100.00;99347.63;5077899;28;20039;-74
2021/11/03 10:43:33;;;;;;;3.88;1.50;;;;;;;11.12;99.77;99349.94;5085887;28;20066;-76
2021/11/03 10:46:05;;;;;;;3.90;1.20;;;;;;;11.18;99.56;99359.75;5083290;28;20033;-73
2021/11/03 10:48:30;;;;;;;3.03;1.42;;;;;;;11.26;99.39;99367.28;5088812;28;20040;-72
2021/11/03 10:50:56;;;;;;;2.60;1.25;;;;;;;11.35;99.84;99365.31;5075745;28;20493;-71
2021/11/03 10:53:55;;;;;;;7.85;1.40;;;;;;;11.42;99.65;99367.56;5080963;28;20029;-76
2021/11/03 10:56:33;;;;;;;4.28;1.27;;;;;;;11.47;98.61;99377.72;5048844;28;20080;-76
2021/11/03 10:59:17;;;;;;;7.40;1.50;;;;;;;11.52;97.57;99380.34;5059964;28;20040;-76
2021/11/03 11:01:45;;;;;;;4.00;1.23;;;;;;;11.54;95.73;99375.28;5087102;28;20033;-72
2021/11/03 11:04:12;;;;;;;2.60;1.10;;;;;;;11.53;94.00;99379.19;5073025;28;20088;-72
2021/11/03 11:06:44;;;;;;;3.05;1.20;;;;;;;11.57;93.62;99382.97;5069898;28;20033;-73
2021/11/03 11:09:09;;;;;;;5.22;1.30;;;;;;;11.60;93.27;99377.56;5082607;28;20398;-74
2021/11/03 11:11:37;;;;;;;5.00;1.30;;;;;;;11.65;93.28;99379.38;5085613;28;20029;-73
2021/11/03 11:14:05;;;;;;;5.10;1.15;;;;;;;11.63;92.25;99379.69;5075761;28;20031;-72
2021/11/03 11:16:43;;;;;;;5.60;1.30;;;;;;;11.69;93.98;99383.09;5061808;28;20117;-74
2021/11/03 11:19:33;;;;;;;4.63;1.25;;;;;;;11.77;96.59;99373.13;5094099;28;20400;-72
2021/11/03 11:22:12;;;;;;;4.07;1.20;;;;;;;11.82;96.16;99376.56;5074987;28;20035;-72
2021/11/03 11:24:56;;;;;;;4.10;0.90;;;;;;;11.90;94.31;99379.69;5069391;28;20409;-72
2021/11/03 11:27:27;;;;;;;3.22;1.13;;;;;;;11.94;95.69;99372.31;5087589;28;20508;-72
2021/11/03 11:30:04;;;;;;;4.50;1.35;;;;;;;12.04;94.99;99366.41;5067308;28;20516;-72
2021/11/03 11:32:35;;;;;;;3.00;0.90;;;;;;;12.13;94.96;99375.53;5087719;28;20396;-74
2021/11/03 11:35:13;;;;;;;7.13;1.40;;;;;;;12.18;92.73;99367.00;5066757;28;20112;-76
2021/11/03 11:37:57;;;;;;;1.75;0.90;;;;;;;12.16;89.53;99368.47;5065141;28;20088;-74
2021/11/03 11:40:39;;;;;;;2.40;1.00;;;;;;;12.12;88.06;99368.34;5080508;28;20036;-72
2021/11/03 11:43:15;;;;;;;2.25;1.30;;;;;;;12.22;90.05;99367.16;5089985;28;20424;-72
2021/11/03 11:45:41;;;;;;;3.95;1.33;;;;;;;12.36;89.29;99369.72;5096630;28;20427;-73
2021/11/03 11:48:13;;;;;;;1.90;0.90;;;;;;;12.47;90.49;99373.75;5092074;28;20085;-72
2021/11/03 11:50:48;;;;;;;3.92;0.90;;;;;;;12.57;91.34;99367.00;5089853;28;20041;-72
2021/11/03 11:53:22;;;;;;;3.22;1.08;;;;;;;12.57;86.46;99372.59;5069396;28;20021;-72
2021/11/03 11:56:12;;;;;;;3.38;1.13;;;;;;;12.57;84.40;99373.41;5090903;28;20059;-72
2021/11/03 11:58:45;;;;;;;4.80;1.00;;;;;;;12.55;82.78;99370.13;5083344;28;20052;-72
2021/11/03 12:01:14;;;;;;;5.75;0.90;;;;;;;12.52;82.75;99377.19;5089650;28;20028;-71
2021/11/03 12:03:50;;;;;;;3.38;0.93;;;;;;;12.53;83.11;99372.41;5084187;28;20115;-69
2021/11/03 12:06:16;;;;;;;2.00;0.65;;;;;;;12.51;83.76;99374.75;5084415;28;20124;-72
2021/11/03 12:09:20;;;;;;;2.88;1.00;;;;;;;12.51;83.04;99375.56;5083030;28;20487;-74
2021/11/03 12:11:58;;;;;;;3.58;0.90;;;;;;;12.49;83.61;99375.06;5073306;28;20041;-77
2021/11/03 12:14:24;;;;;;;4.50;1.27;;;;;;;12.44;84.72;99374.44;5084661;28;20173;-79
2021/11/03 12:16:54;;;;;;;3.45;1.10;;;;;;;12.42;86.51;99380.31;5091353;28;20103;-77
2021/11/03 12:19:38;;;;;;;6.18;1.30;;;;;;;12.43;88.09;99376.41;5065938;28;20092;-77
2021/11/03 12:22:10;;;;;;;4.10;1.20;;;;;;;12.45;87.99;99371.31;5087709;28;20089;-79
2021/11/03 12:24:49;;;;;;;3.35;0.88;;;;;;;12.47;89.84;99365.41;5093046;28;20043;-79
2021/11/03 12:27:24;;;;;;;4.38;1.40;;;;;;;12.51;89.61;99371.97;5060154;28;20079;-79
2021/11/03 12:30:08;;;;;;;3.22;1.10;;;;;;;12.59;87.90;99371.09;5086870;28;20032;-78
2021/11/03 12:32:54;;;;;;;3.00;1.10;;;;;;;12.68;88.00;99369.06;5079625;28;20036;-79
2021/11/03 12:35:19;;;;;;;3.83;1.30;;;;;;;12.79;89.64;99374.25;5076935;28;20028;-79
2021/11/03 12:37:47;;;;;;;3.78;1.15;;;;;;;12.84;87.86;99371.28;5075649;28;20024;-79
2021/11/03 12:40:30;;;;;;;4.75;1.55;;;;;;;12.95;87.52;99383.66;5059818;28;20085;-78
2021/11/03 12:43:32;;;;;;;4.13;1.20;;;;;;;12.92;82.96;99370.41;5089065;28;20403;-79
2021/11/03 12:46:07;;;;;;;6.15;1.30;;;;;;;13.01;84.35;99365.63;5061271;28;20054;-79
2021/11/03 12:48:47;;;;;;;3.70;1.02;;;;;;;13.06;85.33;99370.16;5078104;28;20044;-79
2021/11/03 12:51:32;;;;;;;2.00;1.20;;;;;;;13.06;84.94;99376.53;5082197;28;20044;-79
2021/11/03 12:54:06;;;;;;;2.35;0.95;;;;;;;13.01;81.46;99371.19;5075914;28;20088;-79
2021/11/03 12:56:37;;;;;;;2.38;1.20;;;;;;;13.01;81.90;99365.63;5073557;28;20055;-79
2021/11/03 12:59:18;;;;;;;4.97;1.50;;;;;;;13.03;81.60;99362.47;5078726;28;20388;-79
2021/11/03 13:01:45;;;;;;;6.15;1.40;;;;;;;13.02;81.95;99377.56;5070491;28;20035;-78
2021/11/03 13:04:27;;;;;;;2.45;1.30;;;;;;;13.00;82.27;99375.09;5042506;28;20085;-79
2021/11/03 13:07:04;;;;;;;3.13;1.23;;;;;;;12.94;80.15;99371.69;5058579;28;20546;-79
2021/11/03 13:09:38;;;;;;;2.80;1.27;;;;;;;12.90;81.09;99376.34;5044346;28;20506;-79
2021/11/03 13:12:34;;;;;;;2.33;1.10;;;;;;;12.87;81.15;99371.44;5063819;28;20033;-79
2021/11/03 13:15:06;;;;;;;3.72;1.40;;;;;;;12.72;81.41;99364.44;5071088;28;20093;-74
2021/11/03 13:17:33;;;;;;;4.35;1.50;;;;;;;12.72;80.55;99370.03;5041528;28;20017;-73
2021/11/03 13:19:59;;;;;;;2.90;1.80;;;;;;;12.70;81.57;99368.72;5073118;28;20090;-73
2021/11/03 13:22:36;;;;;;;4.10;2.30;;;;;;;12.65;81.93;99369.75;5044749;28;20032;-73
2021/11/03 13:25:05;;;;;;;3.70;1.80;;;;;;;12.59;81.77;99368.31;5060958;28;20036;-73
2021/11/03 13:27:32;;;;;;;3.03;1.80;;;;;;;12.52;82.32;99370.78;5057433;28;20063;-70
2021/11/03 13:30:03;;;;;;;4.25;1.58;;;;;;;12.48;81.94;99369.81;5085846;28;20127;-70
2021/11/03 13:32:33;;;;;;;1.63;1.00;;;;;;;12.41;82.35;99372.31;5056953;28;20121;-72
2021/11/03 13:35:02;;;;;;;3.33;1.10;;;;;;;12.34;82.39;99363.66;5057302;28;20027;-72
2021/11/03 13:37:32;;;;;;;4.18;1.10;;;;;;;12.29;82.63;99371.06;5083540;28;20028;-72
2021/11/03 13:40:13;;;;;;;3.25;1.00;;;;;;;12.23;82.81;99363.19;5073042;28;20039;-72
2021/11/03 13:42:43;;;;;;;4.05;0.90;;;;;;;12.14;82.86;99354.88;5076355;28;20036;-72
2021/11/03 13:45:31;;;;;;;3.85;0.75;;;;;;;12.08;83.54;99359.00;5074109;28;20071;-71
2021/11/03 13:48:09;;;;;;;2.15;1.10;;;;;;;12.01;84.03;99356.75;5075028;28;20041;-71
2021/11/03 13:50:51;;;;;;;2.13;0.70;;;;;;;11.94;85.22;99361.19;5075563;28;20389;-71
2021/11/03 13:53:16;;;;;;;3.38;1.00;;;;;;;11.85;85.70;99364.78;5079097;28;20023;-71
2021/11/03 13:56:08;;;;;;;2.25;0.88;;;;;;;11.77;86.19;99365.59;5060580;28;20035;-71
2021/11/03 13:58:34;;;;;;;3.10;0.70;;;;;;;11.68;86.18;99364.78;5061293;28;20044;-76
2021/11/03 14:01:11;;;;;;;7.30;0.80;;;;;;;11.59;86.55;99362.03;5081466;28;20755;-76
2021/11/03 14:03:45;;;;;;;5.72;1.00;;;;;;;11.52;87.39;99355.31;5074767;28;20024;-76
2021/11/03 14:06:29;;;;;;;4.35;1.00;;;;;;;11.39;87.75;99357.97;5071744;28;20090;-76
2021/11/03 14:09:13;;;;;;;1.88;0.70;;;;;;;11.32;87.84;99354.84;5072569;28;20043;-76
2021/11/03 14:11:39;;;;;;;4.47;0.90;;;;;;;11.24;88.14;99360.41;5055006;28;20032;-76
2021/11/03 14:14:05;;;;;;;1.40;0.73;;;;;;;11.16;88.24;99356.47;5071655;28;20032;-76
2021/11/03 14:16:47;;;;;;;3.30;0.60;;;;;;;11.10;88.86;99357.78;5073639;28;20021;-76
2021/11/03 14:19:21;;;;;;;4.43;0.75;;;;;;;11.02;88.73;99353.03;5072931;28;20173;-76
2021/11/03 14:21:47;;;;;;;3.03;0.65;;;;;;;10.95;88.77;99359.06;5075154;28;20039;-77
2021/11/03 14:24:14;;;;;;;3.17;0.82;;;;;;;10.90;89.34;99356.44;5054017;28;20029;-77
2021/11/03 14:26:40;;;;;;;1.33;0.75;;;;;;;10.85;89.07;99362.97;5055129;28;20044;-76
2021/11/03 14:29:05;;;;;;;2.80;0.82;;;;;;;10.79;89.06;99363.44;5074210;28;20476;-76
2021/11/03 14:31:31;;;;;;;3.03;1.00;;;;;;;10.76;89.39;99373.25;5075463;28;20551;-77
2021/11/03 14:33:59;;;;;;;1.98;1.00;;;;;;;10.72;89.82;99372.25;5075869;28;20033;-76
2021/11/03 14:36:25;;;;;;;1.63;0.90;;;;;;;10.68;89.49;99374.03;5041734;28;20043;-76
2021/11/03 14:38:51;;;;;;;2.55;0.80;;;;;;;10.67;90.26;99376.00;5069873;28;20485;-77
2021/11/03 14:41:21;;;;;;;4.03;1.00;;;;;;;10.67;89.63;99377.94;5073771;28;20037;-76
2021/11/03 14:43:50;;;;;;;2.25;0.80;;;;;;;10.63;90.21;99385.28;5073245;28;20032;-76
2021/11/03 14:46:32;;;;;;;2.20;0.90;;;;;;;10.63;89.87;99379.72;5071075;28;20039;-77
2021/11/03 14:48:58;;;;;;;3.78;0.80;;;;;;;10.63;89.58;99380.56;5080025;28;20041;-76
2021/11/03 14:51:24;;;;;;;2.47;0.80;;;;;;;10.64;89.63;99384.97;5079220;28;20104;-76
2021/11/03 14:53:49;;;;;;;2.45;0.60;;;;;;;10.64;89.62;99384.13;5060798;28;20040;-77
2021/11/03 14:56:17;;;;;;;1.40;0.70;;;;;;;10.66;88.76;99387.41;5079342;28;20028;-77
2021/11/03 14:58:43;;;;;;;3.55;0.93;;;;;;;10.65;89.08;99385.78;5082802;28;20400;-76
2021/11/03 15:01:20;;;;;;;1.65;0.60;;;;;;;10.64;89.95;99389.69;5062760;28;20048;-76
2021/11/03 15:03:46;;;;;;;4.15;1.77;;;;;;;10.63;89.70;99397.22;5081796;28;20041;-76
2021/11/03 15:06:12;;;;;;;5.80;1.00;;;;;;;10.64;89.93;99398.03;5076606;28;20032;-76
2021/11/03 15:08:41;;;;;;;1.95;1.10;;;;;;;10.59;89.26;99395.41;5083109;28;20093;-75
2021/11/03 15:11:07;;;;;;;3.50;1.10;;;;;;;10.61;89.65;99395.88;5081115;28;20086;-76
2021/11/03 15:13:34;;;;;;;2.22;1.08;;;;;;;10.61;90.08;99395.88;5075089;28;20044;-76
2021/11/03 15:16:01;;;;;;;2.53;0.90;;;;;;;10.60;90.40;99395.06;5080138;28;20113;-76
2021/11/03 15:18:39;;;;;;;4.63;1.02;;;;;;;10.59;91.34;99398.19;5079831;28;20032;-76
2021/11/03 15:21:05;;;;;;;1.98;0.90;;;;;;;10.59;91.16;99403.75;5077646;28;20047;-76
2021/11/03 15:23:30;;;;;;;1.70;1.00;;;;;;;10.56;92.02;99413.53;5082992;28;20037;-76
2021/11/03 15:25:57;;;;;;;1.63;0.98;;;;;;;10.54;93.19;99409.44;5081010;28;20027;-76
2021/11/03 15:28:23;;;;;;;1.70;1.00;;;;;;;10.51;92.91;99419.22;5073457;28;20036;-76
2021/11/03 15:30:49;;;;;;;2.97;1.50;;;;;;;10.50;93.02;99415.63;5066329;28;20486;-76
2021/11/03 15:33:19;;;;;;;3.97;2.58;;;;;;;10.46;93.23;99424.91;5061978;28;20029;-76
2021/11/03 15:35:45;;;;;;;8.35;4.55;;;;;;;10.42;93.42;99429.44;5077369;28;20033;-76
2021/11/03 15:38:25;;;;;;;9.82;4.70;;;;;;;10.37;92.93;99433.19;5079298;28;20063;-76
2021/11/03 15:40:52;;;;;;;9.73;5.60;;;;;;;10.35;93.44;99429.09;5081338;28;20032;-76
2021/11/03 15:43:18;;;;;;;18.27;4.72;;;;;;;10.30;93.12;99427.28;5076957;28;20089;-76
2021/11/03 15:45:45;;;;;;;7.78;4.35;;;;;;;10.29;93.69;99439.53;5073299;28;20024;-77
2021/11/03 15:48:19;;;;;;;8.40;4.30;;;;;;;10.25;93.75;99436.53;5061492;28;20043;-77
2021/11/03 15:50:45;;;;;;;9.02;3.10;;;;;;;10.24;93.92;99434.06;5062902;28;20059;-77
2021/11/03 15:53:15;;;;;;;5.32;2.30;;;;;;;10.19;94.38;99437.78;5077625;28;20534;-76
2021/11/03 15:55:41;;;;;;;5.70;2.63;;;;;;;10.17;94.60;99433.69;5073914;28;20025;-76
2021/11/03 15:58:07;;;;;;;5.50;2.72;;;;;;;10.13;94.86;99435.47;5075402;28;20033;-76
2021/11/03 16:00:35;;;;;;;4.10;2.30;;;;;;;10.10;94.85;99444.44;5075169;28;20029;-77
2021/11/03 16:03:06;;;;;;;7.07;2.63;;;;;;;10.03;94.69;99454.03;5078519;28;20033;-77
2021/11/03 16:05:34;;;;;;;4.72;2.50;;;;;;;9.99;94.64;99453.00;5077942;28;20029;-76
2021/11/03 16:08:01;;;;;;;7.03;2.20;;;;;;;9.93;94.88;99450.69;5079747;28;20499;-76
2021/11/03 16:10:29;;;;;;;3.38;2.10;;;;;;;9.88;94.61;99461.91;5062428;28;20047;-76
2021/11/03 16:12:55;;;;;;;4.53;1.90;;;;;;;9.81;94.94;99459.59;5058846;28;20112;-77
2021/11/03 16:15:20;;;;;;;3.20;1.77;;;;;;;9.75;95.21;99458.03;5062633;28;20061;-77
2021/11/03 16:17:47;;;;;;;4.57;1.70;;;;;;;9.68;95.16;99468.75;5088880;28;20043;-77
2021/11/03 16:20:13;;;;;;;3.38;1.60;;;;;;;9.61;95.05;99467.25;5076028;28;20024;-76
2021/11/03 16:22:41;;;;;;;4.55;1.67;;;;;;;9.53;94.83;99470.75;5079469;28;20749;-77
2021/11/03 16:25:29;;;;;;;2.28;1.50;;;;;;;9.45;94.72;99474.28;5081965;28;20110;-78
2021/11/03 16:27:56;;;;;;;3.60;1.83;;;;;;;9.38;94.58;99474.69;5081010;28;20059;-74
2021/11/03 16:30:33;;;;;;;5.22;1.48;;;;;;;9.30;94.82;99471.84;5060964;28;20054;-74
2021/11/03 16:32:59;;;;;;;2.22;1.52;;;;;;;9.23;94.47;99471.44;5071910;28;20086;-74
2021/11/03 16:35:25;;;;;;;2.83;1.33;;;;;;;9.13;94.75;99473.28;5080956;28;20040;-73
2021/11/03 16:37:50;;;;;;;2.08;1.20;;;;;;;9.06;94.72;99477.63;5080648;28;20032;-73
2021/11/03 16:40:18;;;;;;;3.85;1.40;;;;;;;8.97;94.98;99473.91;5080500;28;20040;-74
2021/11/03 16:42:44;;;;;;;3.83;1.42;;;;;;;8.90;94.98;99483.47;5060070;28;20481;-74
2021/11/03 16:45:16;;;;;;;3.15;1.52;;;;;;;8.80;95.06;99485.63;5081404;28;20028;-74
2021/11/03 16:47:44;;;;;;;3.95;1.67;;;;;;;8.73;95.00;99486.84;5078265;28;20041;-77
2021/11/03 16:50:25;;;;;;;8.38;1.85;;;;;;;8.62;95.12;99479.88;5028706;28;20033;-74
2021/11/03 16:52:50;;;;;;;2.83;1.70;;;;;;;8.55;95.00;99479.44;5057200;28;20033;-76
2021/11/03 16:55:16;;;;;;;3.15;2.08;;;;;;;8.49;95.32;99477.91;5088724;28;20047;-76
2021/11/03 16:57:42;;;;;;;7.03;2.38;;;;;;;8.41;95.21;99479.44;5073831;28;20024;-75
2021/11/03 17:00:24;;;;;;;4.60;2.08;;;;;;;8.35;94.95;99480.63;5058156;28;20039;-76
2021/11/03 17:02:49;;;;;;;3.83;2.08;;;;;;;8.26;95.28;99474.97;5062206;28;20067;-74
2021/11/03 17:05:16;;;;;;;6.05;2.50;;;;;;;8.19;95.11;99482.00;5058653;28;20036;-74
2021/11/03 17:07:54;;;;;;;5.18;2.13;;;;;;;8.10;95.31;99486.59;5059158;28;20737;-73
2021/11/03 17:10:20;;;;;;;2.90;2.03;;;;;;;8.03;95.17;99484.22;5062565;28;20030;-74
2021/11/03 17:12:46;;;;;;;4.63;2.50;;;;;;;7.94;95.44;99494.31;5080720;28;20039;-74
2021/11/03 17:15:15;;;;;;;3.50;2.28;;;;;;;7.91;95.06;99494.91;5065266;28;20488;-74
2021/11/03 17:17:41;;;;;;;3.97;2.90;;;;;;;7.81;95.56;99504.22;5060944;28;20500;-74
2021/11/03 17:20:07;;;;;;;5.10;2.38;;;;;;;7.76;95.49;99507.03;5072248;28;20063;-74
2021/11/03 17:22:33;;;;;;;4.38;2.45;;;;;;;7.68;95.55;99500.25;5079367;28;20033;-74
2021/11/03 17:24:59;;;;;;;4.03;2.60;;;;;;;7.69;95.29;99506.59;5058785;28;20043;-73
2021/11/03 17:27:28;;;;;;;3.47;2.22;;;;;;;7.57;95.76;99504.28;5075674;28;20043;-74
2021/11/03 17:29:59;;;;;;;4.07;2.42;;;;;;;7.49;95.52;99513.25;5076914;28;20396;-73
2021/11/03 17:32:30;;;;;;;5.65;2.50;;;;;;;7.44;95.63;99511.38;5059557;28;20028;-74
2021/11/03 17:34:56;;;;;;;4.70;2.17;;;;;;;7.37;95.37;99511.75;5057663;28;20507;-74
2021/11/03 17:37:22;;;;;;;4.57;2.70;;;;;;;7.31;95.87;99518.47;5062856;28;20075;-74
2021/11/03 17:39:49;;;;;;;4.40;2.17;;;;;;;7.26;95.60;99523.22;5071064;28;20476;-73
2021/11/03 17:42:23;;;;;;;4.53;2.40;;;;;;;7.19;95.92;99525.50;5077413;28;20024;-73
2021/11/03 17:44:54;;;;;;;4.75;2.33;;;;;;;7.17;96.12;99536.88;5077704;28;20464;-73
2021/11/03 17:47:20;;;;;;;5.47;2.78;;;;;;;7.14;96.08;99538.28;5074180;28;20028;-73
2021/11/03 17:49:50;;;;;;;5.03;2.75;;;;;;;7.08;95.89;99541.41;5080222;28;20028;-73
2021/11/03 17:52:16;;;;;;;4.68;2.42;;;;;;;7.00;95.99;99544.81;5076623;28;20039;-73
2021/11/03 17:54:41;;;;;;;6.53;2.88;;;;;;;6.95;95.88;99548.44;5077367;28;20028;-73
2021/11/03 17:57:37;;;;;;;5.18;3.30;;;;;;;6.90;95.92;99552.06;5077332;28;20445;-73